sensor_id;sensor_type;location;lat;lon;timestamp;P1;durP1;ratioP1;P2;durP2;ratioP2
12412;SDS011;13877;18.896;-99.222;2022-09-09T00:01:54;16.20;;;11.50;;
12412;SDS011;13877;18.896;-99.222;2022-09-09T00:04:41;16.40;;;11.07;;
12412;SDS011;13877;18.896;-99.222;2022-09-09T00:09:46;18.42;;;10.63;;
12412;SDS011;13877;18.896;-99.222;2022-09-09T00:12:25;20.30;;;10.23;;
12412;SDS011;13877;18.896;-99.222;2022-09-09T00:15:11;14.15;;;9.73;;
12412;SDS011;13877;18.896;-99.222;2022-09-09T00:23:04;14.90;;;8.80;;
12412;SDS011;13877;18.896;-99.222;2022-09-09T00:28:41;17.13;;;9.32;;
12412;SDS011;13877;18.896;-99.222;2022-09-09T00:31:23;12.98;;;9.38;;
12412;SDS011;13877;18.896;-99.222;2022-09-09T00:36:24;14.80;;;9.70;;
12412;SDS011;13877;18.896;-99.222;2022-09-09T00:38:56;17.10;;;8.93;;
12412;SDS011;13877;18.896;-99.222;2022-09-09T00:44:49;16.27;;;9.52;;
12412;SDS011;13877;18.896;-99.222;2022-09-09T00:52:32;14.90;;;9.73;;
12412;SDS011;13877;18.896;-99.222;2022-09-09T00:58:07;15.55;;;9.23;;
12412;SDS011;13877;18.896;-99.222;2022-09-09T01:00:42;17.20;;;9.77;;
12412;SDS011;13877;18.896;-99.222;2022-09-09T01:03:19;19.02;;;12.13;;
12412;SDS011;13877;18.896;-99.222;2022-09-09T01:11:21;21.30;;;11.75;;
12412;SDS011;13877;18.896;-99.222;2022-09-09T01:16:53;21.15;;;11.02;;
12412;SDS011;13877;18.896;-99.222;2022-09-09T01:22:44;21.27;;;12.10;;
12412;SDS011;13877;18.896;-99.222;2022-09-09T01:28:30;20.05;;;11.10;;
12412;SDS011;13877;18.896;-99.222;2022-09-09T01:31:05;19.13;;;10.27;;
12412;SDS011;13877;18.896;-99.222;2022-09-09T01:33:41;15.95;;;12.02;;
12412;SDS011;13877;18.896;-99.222;2022-09-09T01:38:51;19.83;;;10.70;;
12412;SDS011;13877;18.896;-99.222;2022-09-09T01:41:20;16.02;;;10.80;;
12412;SDS011;13877;18.896;-99.222;2022-09-09T01:43:54;14.60;;;10.73;;
12412;SDS011;13877;18.896;-99.222;2022-09-09T01:46:26;18.88;;;11.60;;
12412;SDS011;13877;18.896;-99.222;2022-09-09T01:48:56;17.42;;;10.95;;
12412;SDS011;13877;18.896;-99.222;2022-09-09T01:51:26;15.27;;;10.60;;
12412;SDS011;13877;18.896;-99.222;2022-09-09T01:53:55;13.65;;;10.55;;
12412;SDS011;13877;18.896;-99.222;2022-09-09T01:56:28;17.00;;;10.50;;
12412;SDS011;13877;18.896;-99.222;2022-09-09T01:59:47;18.17;;;11.38;;
12412;SDS011;13877;18.896;-99.222;2022-09-09T02:02:19;16.35;;;11.70;;
12412;SDS011;13877;18.896;-99.222;2022-09-09T02:08:07;20.20;;;10.32;;
12412;SDS011;13877;18.896;-99.222;2022-09-09T02:10:55;17.20;;;10.20;;
12412;SDS011;13877;18.896;-99.222;2022-09-09T02:13:48;15.82;;;10.27;;
12412;SDS011;13877;18.896;-99.222;2022-09-09T02:24:39;16.02;;;10.30;;
12412;SDS011;13877;18.896;-99.222;2022-09-09T02:27:14;19.10;;;11.68;;
12412;SDS011;13877;18.896;-99.222;2022-09-09T02:29:43;22.23;;;11.93;;
12412;SDS011;13877;18.896;-99.222;2022-09-09T02:32:13;16.98;;;11.20;;
12412;SDS011;13877;18.896;-99.222;2022-09-09T02:34:44;21.60;;;13.40;;
12412;SDS011;13877;18.896;-99.222;2022-09-09T02:37:15;26.15;;;13.70;;
12412;SDS011;13877;18.896;-99.222;2022-09-09T02:39:48;26.00;;;13.23;;
12412;SDS011;13877;18.896;-99.222;2022-09-09T02:42:18;29.27;;;18.65;;
12412;SDS011;13877;18.896;-99.222;2022-09-09T02:44:45;32.35;;;18.85;;
12412;SDS011;13877;18.896;-99.222;2022-09-09T02:50:01;34.03;;;21.40;;
12412;SDS011;13877;18.896;-99.222;2022-09-09T02:55:46;28.48;;;16.48;;
12412;SDS011;13877;18.896;-99.222;2022-09-09T02:58:18;24.10;;;15.13;;
12412;SDS011;13877;18.896;-99.222;2022-09-09T03:01:05;33.47;;;14.82;;
12412;SDS011;13877;18.896;-99.222;2022-09-09T03:03:35;26.08;;;13.55;;
12412;SDS011;13877;18.896;-99.222;2022-09-09T03:06:07;20.80;;;13.38;;
12412;SDS011;13877;18.896;-99.222;2022-09-09T03:08:34;35.45;;;13.82;;
12412;SDS011;13877;18.896;-99.222;2022-09-09T03:11:01;31.88;;;15.32;;
12412;SDS011;13877;18.896;-99.222;2022-09-09T03:13:32;34.80;;;15.13;;
12412;SDS011;13877;18.896;-99.222;2022-09-09T03:15:59;25.08;;;13.98;;
12412;SDS011;13877;18.896;-99.222;2022-09-09T03:18:30;29.93;;;15.10;;
12412;SDS011;13877;18.896;-99.222;2022-09-09T03:20:58;30.92;;;15.63;;
12412;SDS011;13877;18.896;-99.222;2022-09-09T03:23:25;27.35;;;14.27;;
12412;SDS011;13877;18.896;-99.222;2022-09-09T03:25:52;30.52;;;14.10;;
12412;SDS011;13877;18.896;-99.222;2022-09-09T03:28:28;27.52;;;13.68;;
12412;SDS011;13877;18.896;-99.222;2022-09-09T03:31:02;27.33;;;14.35;;
12412;SDS011;13877;18.896;-99.222;2022-09-09T03:33:34;30.50;;;14.27;;
12412;SDS011;13877;18.896;-99.222;2022-09-09T03:36:03;33.40;;;16.02;;
12412;SDS011;13877;18.896;-99.222;2022-09-09T03:38:31;34.20;;;17.98;;
12412;SDS011;13877;18.896;-99.222;2022-09-09T03:40:59;32.90;;;16.85;;
12412;SDS011;13877;18.896;-99.222;2022-09-09T03:43:28;27.50;;;16.92;;
12412;SDS011;13877;18.896;-99.222;2022-09-09T03:45:56;33.30;;;17.58;;
12412;SDS011;13877;18.896;-99.222;2022-09-09T03:48:25;28.60;;;16.27;;
12412;SDS011;13877;18.896;-99.222;2022-09-09T03:50:54;31.65;;;16.00;;
12412;SDS011;13877;18.896;-99.222;2022-09-09T03:53:24;36.38;;;17.50;;
12412;SDS011;13877;18.896;-99.222;2022-09-09T03:55:53;34.58;;;17.77;;
12412;SDS011;13877;18.896;-99.222;2022-09-09T03:58:24;34.80;;;18.05;;
12412;SDS011;13877;18.896;-99.222;2022-09-09T04:00:57;33.78;;;17.52;;
12412;SDS011;13877;18.896;-99.222;2022-09-09T04:03:35;30.40;;;17.40;;
12412;SDS011;13877;18.896;-99.222;2022-09-09T04:06:03;32.80;;;17.13;;
12412;SDS011;13877;18.896;-99.222;2022-09-09T04:08:33;28.10;;;16.83;;
12412;SDS011;13877;18.896;-99.222;2022-09-09T04:11:01;36.63;;;18.13;;
12412;SDS011;13877;18.896;-99.222;2022-09-09T04:13:34;31.20;;;17.75;;
12412;SDS011;13877;18.896;-99.222;2022-09-09T04:16:03;33.17;;;17.45;;
12412;SDS011;13877;18.896;-99.222;2022-09-09T04:18:32;38.45;;;19.00;;
12412;SDS011;13877;18.896;-99.222;2022-09-09T04:21:00;34.35;;;18.20;;
12412;SDS011;13877;18.896;-99.222;2022-09-09T04:23:31;31.77;;;18.87;;
12412;SDS011;13877;18.896;-99.222;2022-09-09T04:25:59;33.78;;;17.95;;
12412;SDS011;13877;18.896;-99.222;2022-09-09T04:28:28;28.40;;;18.10;;
12412;SDS011;13877;18.896;-99.222;2022-09-09T04:31:05;34.08;;;17.17;;
12412;SDS011;13877;18.896;-99.222;2022-09-09T04:33:35;36.05;;;18.23;;
12412;SDS011;13877;18.896;-99.222;2022-09-09T04:36:02;38.67;;;18.25;;
12412;SDS011;13877;18.896;-99.222;2022-09-09T04:38:32;33.58;;;19.08;;
12412;SDS011;13877;18.896;-99.222;2022-09-09T04:41:00;38.33;;;20.88;;
12412;SDS011;13877;18.896;-99.222;2022-09-09T04:43:27;35.88;;;19.92;;
12412;SDS011;13877;18.896;-99.222;2022-09-09T04:45:54;30.50;;;19.05;;
12412;SDS011;13877;18.896;-99.222;2022-09-09T04:48:23;35.50;;;17.83;;
12412;SDS011;13877;18.896;-99.222;2022-09-09T04:50:54;30.77;;;17.15;;
12412;SDS011;13877;18.896;-99.222;2022-09-09T04:53:26;28.90;;;17.30;;
12412;SDS011;13877;18.896;-99.222;2022-09-09T04:56:00;32.38;;;16.25;;
12412;SDS011;13877;18.896;-99.222;2022-09-09T04:58:46;31.88;;;15.68;;
12412;SDS011;13877;18.896;-99.222;2022-09-09T05:01:15;30.25;;;15.73;;
12412;SDS011;13877;18.896;-99.222;2022-09-09T05:03:45;29.23;;;16.60;;
12412;SDS011;13877;18.896;-99.222;2022-09-09T05:06:17;31.25;;;16.73;;
12412;SDS011;13877;18.896;-99.222;2022-09-09T05:08:49;29.80;;;15.63;;
12412;SDS011;13877;18.896;-99.222;2022-09-09T05:11:20;27.90;;;16.65;;
12412;SDS011;13877;18.896;-99.222;2022-09-09T05:13:50;27.48;;;17.20;;
12412;SDS011;13877;18.896;-99.222;2022-09-09T05:16:19;39.47;;;17.98;;
12412;SDS011;13877;18.896;-99.222;2022-09-09T05:18:46;26.50;;;16.45;;
12412;SDS011;13877;18.896;-99.222;2022-09-09T05:21:18;27.25;;;16.17;;
12412;SDS011;13877;18.896;-99.222;2022-09-09T05:23:46;33.97;;;17.70;;
12412;SDS011;13877;18.896;-99.222;2022-09-09T05:26:15;27.17;;;17.50;;
12412;SDS011;13877;18.896;-99.222;2022-09-09T05:28:47;31.48;;;17.42;;
12412;SDS011;13877;18.896;-99.222;2022-09-09T05:31:15;36.55;;;16.90;;
12412;SDS011;13877;18.896;-99.222;2022-09-09T05:33:46;32.05;;;16.80;;
12412;SDS011;13877;18.896;-99.222;2022-09-09T05:36:16;29.02;;;17.20;;
12412;SDS011;13877;18.896;-99.222;2022-09-09T05:38:46;31.58;;;17.80;;
12412;SDS011;13877;18.896;-99.222;2022-09-09T05:41:14;34.95;;;17.08;;
12412;SDS011;13877;18.896;-99.222;2022-09-09T05:43:42;37.88;;;17.13;;
12412;SDS011;13877;18.896;-99.222;2022-09-09T05:46:17;34.85;;;18.63;;
12412;SDS011;13877;18.896;-99.222;2022-09-09T05:48:47;33.70;;;18.33;;
12412;SDS011;13877;18.896;-99.222;2022-09-09T05:51:18;33.60;;;18.58;;
12412;SDS011;13877;18.896;-99.222;2022-09-09T05:53:48;38.33;;;19.05;;
12412;SDS011;13877;18.896;-99.222;2022-09-09T05:58:51;32.70;;;17.35;;
12412;SDS011;13877;18.896;-99.222;2022-09-09T06:01:21;29.52;;;16.98;;
12412;SDS011;13877;18.896;-99.222;2022-09-09T06:03:56;34.05;;;17.15;;
12412;SDS011;13877;18.896;-99.222;2022-09-09T06:06:24;30.50;;;17.55;;
12412;SDS011;13877;18.896;-99.222;2022-09-09T06:08:56;30.35;;;17.83;;
12412;SDS011;13877;18.896;-99.222;2022-09-09T06:11:30;29.10;;;16.67;;
12412;SDS011;13877;18.896;-99.222;2022-09-09T06:13:58;28.80;;;16.63;;
12412;SDS011;13877;18.896;-99.222;2022-09-09T06:16:27;30.92;;;16.65;;
12412;SDS011;13877;18.896;-99.222;2022-09-09T06:18:56;27.67;;;16.30;;
12412;SDS011;13877;18.896;-99.222;2022-09-09T06:21:34;32.33;;;15.43;;
12412;SDS011;13877;18.896;-99.222;2022-09-09T06:24:05;28.10;;;16.85;;
12412;SDS011;13877;18.896;-99.222;2022-09-09T06:26:37;25.10;;;16.48;;
12412;SDS011;13877;18.896;-99.222;2022-09-09T06:29:09;22.98;;;15.68;;
12412;SDS011;13877;18.896;-99.222;2022-09-09T06:31:36;24.90;;;15.88;;
12412;SDS011;13877;18.896;-99.222;2022-09-09T06:34:09;24.98;;;15.45;;
12412;SDS011;13877;18.896;-99.222;2022-09-09T06:36:40;26.60;;;15.85;;
12412;SDS011;13877;18.896;-99.222;2022-09-09T06:39:07;25.80;;;15.27;;
12412;SDS011;13877;18.896;-99.222;2022-09-09T06:41:37;24.20;;;15.90;;
12412;SDS011;13877;18.896;-99.222;2022-09-09T06:44:07;24.92;;;15.65;;
12412;SDS011;13877;18.896;-99.222;2022-09-09T06:46:40;34.88;;;17.10;;
12412;SDS011;13877;18.896;-99.222;2022-09-09T06:49:09;34.00;;;16.88;;
12412;SDS011;13877;18.896;-99.222;2022-09-09T06:51:36;32.33;;;16.27;;
12412;SDS011;13877;18.896;-99.222;2022-09-09T06:54:11;32.85;;;18.48;;
12412;SDS011;13877;18.896;-99.222;2022-09-09T06:56:41;36.67;;;18.83;;
12412;SDS011;13877;18.896;-99.222;2022-09-09T06:59:15;33.28;;;18.95;;
12412;SDS011;13877;18.896;-99.222;2022-09-09T07:01:45;33.47;;;18.90;;
12412;SDS011;13877;18.896;-99.222;2022-09-09T07:04:18;29.38;;;18.60;;
12412;SDS011;13877;18.896;-99.222;2022-09-09T07:06:45;29.80;;;19.17;;
12412;SDS011;13877;18.896;-99.222;2022-09-09T07:09:20;29.17;;;19.63;;
12412;SDS011;13877;18.896;-99.222;2022-09-09T07:11:50;29.48;;;18.25;;
12412;SDS011;13877;18.896;-99.222;2022-09-09T07:14:20;28.90;;;19.58;;
12412;SDS011;13877;18.896;-99.222;2022-09-09T07:16:53;35.72;;;18.38;;
12412;SDS011;13877;18.896;-99.222;2022-09-09T07:19:20;28.15;;;18.33;;
12412;SDS011;13877;18.896;-99.222;2022-09-09T07:21:50;32.65;;;18.15;;
12412;SDS011;13877;18.896;-99.222;2022-09-09T07:24:21;30.40;;;19.27;;
12412;SDS011;13877;18.896;-99.222;2022-09-09T07:26:48;29.45;;;18.98;;
12412;SDS011;13877;18.896;-99.222;2022-09-09T07:29:15;28.15;;;16.70;;
12412;SDS011;13877;18.896;-99.222;2022-09-09T07:31:43;27.27;;;17.52;;
12412;SDS011;13877;18.896;-99.222;2022-09-09T07:34:13;27.27;;;18.35;;
12412;SDS011;13877;18.896;-99.222;2022-09-09T07:36:40;27.67;;;16.63;;
12412;SDS011;13877;18.896;-99.222;2022-09-09T07:39:11;31.77;;;17.70;;
12412;SDS011;13877;18.896;-99.222;2022-09-09T07:41:47;28.98;;;17.60;;
12412;SDS011;13877;18.896;-99.222;2022-09-09T07:44:19;29.85;;;16.48;;
12412;SDS011;13877;18.896;-99.222;2022-09-09T07:46:51;27.70;;;17.63;;
12412;SDS011;13877;18.896;-99.222;2022-09-09T07:49:22;29.25;;;17.40;;
12412;SDS011;13877;18.896;-99.222;2022-09-09T07:51:50;28.00;;;17.48;;
12412;SDS011;13877;18.896;-99.222;2022-09-09T07:54:18;28.17;;;18.05;;
12412;SDS011;13877;18.896;-99.222;2022-09-09T07:56:49;33.00;;;17.35;;
12412;SDS011;13877;18.896;-99.222;2022-09-09T07:59:18;29.65;;;18.58;;
12412;SDS011;13877;18.896;-99.222;2022-09-09T08:01:48;29.98;;;18.42;;
12412;SDS011;13877;18.896;-99.222;2022-09-09T08:04:20;28.13;;;17.77;;
12412;SDS011;13877;18.896;-99.222;2022-09-09T08:06:50;39.92;;;20.50;;
12412;SDS011;13877;18.896;-99.222;2022-09-09T08:09:21;33.55;;;20.77;;
12412;SDS011;13877;18.896;-99.222;2022-09-09T08:12:01;39.72;;;20.52;;
12412;SDS011;13877;18.896;-99.222;2022-09-09T08:14:29;37.85;;;21.48;;
12412;SDS011;13877;18.896;-99.222;2022-09-09T08:16:57;34.42;;;20.83;;
12412;SDS011;13877;18.896;-99.222;2022-09-09T08:19:27;34.92;;;20.52;;
12412;SDS011;13877;18.896;-99.222;2022-09-09T08:22:00;35.00;;;21.65;;
12412;SDS011;13877;18.896;-99.222;2022-09-09T08:24:27;38.80;;;21.85;;
12412;SDS011;13877;18.896;-99.222;2022-09-09T08:26:55;33.78;;;22.15;;
12412;SDS011;13877;18.896;-99.222;2022-09-09T08:29:23;41.65;;;22.05;;
12412;SDS011;13877;18.896;-99.222;2022-09-09T08:31:53;35.92;;;21.23;;
12412;SDS011;13877;18.896;-99.222;2022-09-09T08:34:24;37.10;;;20.65;;
12412;SDS011;13877;18.896;-99.222;2022-09-09T08:36:53;36.47;;;20.88;;
12412;SDS011;13877;18.896;-99.222;2022-09-09T08:39:27;35.67;;;19.75;;
12412;SDS011;13877;18.896;-99.222;2022-09-09T08:45:01;37.67;;;21.52;;
12412;SDS011;13877;18.896;-99.222;2022-09-09T08:50:29;33.92;;;22.05;;
12412;SDS011;13877;18.896;-99.222;2022-09-09T08:53:15;44.53;;;23.35;;
12412;SDS011;13877;18.896;-99.222;2022-09-09T08:55:48;42.47;;;22.83;;
12412;SDS011;13877;18.896;-99.222;2022-09-09T08:58:47;47.00;;;24.50;;
12412;SDS011;13877;18.896;-99.222;2022-09-09T09:06:54;48.25;;;25.83;;
12412;SDS011;13877;18.896;-99.222;2022-09-09T09:12:16;55.23;;;30.73;;
12412;SDS011;13877;18.896;-99.222;2022-09-09T09:14:47;60.25;;;30.20;;
12412;SDS011;13877;18.896;-99.222;2022-09-09T09:17:19;41.45;;;25.75;;
12412;SDS011;13877;18.896;-99.222;2022-09-09T09:19:50;55.10;;;30.67;;
12412;SDS011;13877;18.896;-99.222;2022-09-09T09:27:46;54.38;;;31.27;;
12412;SDS011;13877;18.896;-99.222;2022-09-09T09:30:42;54.70;;;32.20;;
12412;SDS011;13877;18.896;-99.222;2022-09-09T09:33:54;53.60;;;29.48;;
12412;SDS011;13877;18.896;-99.222;2022-09-09T09:36:40;52.90;;;30.20;;
12412;SDS011;13877;18.896;-99.222;2022-09-09T09:39:45;56.38;;;31.27;;
12412;SDS011;13877;18.896;-99.222;2022-09-09T09:42:09;52.33;;;30.13;;
12412;SDS011;13877;18.896;-99.222;2022-09-09T09:44:42;55.25;;;29.95;;
12412;SDS011;13877;18.896;-99.222;2022-09-09T09:47:20;49.00;;;29.08;;
12412;SDS011;13877;18.896;-99.222;2022-09-09T09:49:58;49.60;;;29.98;;
12412;SDS011;13877;18.896;-99.222;2022-09-09T09:52:33;45.10;;;28.88;;
12412;SDS011;13877;18.896;-99.222;2022-09-09T09:55:04;45.55;;;27.15;;
12412;SDS011;13877;18.896;-99.222;2022-09-09T09:57:39;54.05;;;29.50;;
12412;SDS011;13877;18.896;-99.222;2022-09-09T10:00:13;49.97;;;30.23;;
12412;SDS011;13877;18.896;-99.222;2022-09-09T10:02:52;47.10;;;28.08;;
12412;SDS011;13877;18.896;-99.222;2022-09-09T10:05:27;46.47;;;28.35;;
12412;SDS011;13877;18.896;-99.222;2022-09-09T10:08:08;42.65;;;26.38;;
12412;SDS011;13877;18.896;-99.222;2022-09-09T10:13:47;46.03;;;26.13;;
12412;SDS011;13877;18.896;-99.222;2022-09-09T10:16:35;47.40;;;27.60;;
12412;SDS011;13877;18.896;-99.222;2022-09-09T10:19:29;49.72;;;27.08;;
12412;SDS011;13877;18.896;-99.222;2022-09-09T10:30:22;57.67;;;28.15;;
12412;SDS011;13877;18.896;-99.222;2022-09-09T10:33:10;53.97;;;27.80;;
12412;SDS011;13877;18.896;-99.222;2022-09-09T10:46:58;47.70;;;26.00;;
12412;SDS011;13877;18.896;-99.222;2022-09-09T10:55:25;37.45;;;23.50;;
12412;SDS011;13877;18.896;-99.222;2022-09-09T10:58:09;33.58;;;20.88;;
12412;SDS011;13877;18.896;-99.222;2022-09-09T11:00:47;40.95;;;23.67;;
12412;SDS011;13877;18.896;-99.222;2022-09-09T11:03:21;43.90;;;22.63;;
12412;SDS011;13877;18.896;-99.222;2022-09-09T11:05:53;39.63;;;22.52;;
12412;SDS011;13877;18.896;-99.222;2022-09-09T11:08:31;37.10;;;22.65;;
12412;SDS011;13877;18.896;-99.222;2022-09-09T11:11:26;41.60;;;23.88;;
12412;SDS011;13877;18.896;-99.222;2022-09-09T11:16:41;36.08;;;21.65;;
12412;SDS011;13877;18.896;-99.222;2022-09-09T11:19:21;36.85;;;21.58;;
12412;SDS011;13877;18.896;-99.222;2022-09-09T11:22:00;46.53;;;22.17;;
12412;SDS011;13877;18.896;-99.222;2022-09-09T11:24:39;31.92;;;16.10;;
12412;SDS011;13877;18.896;-99.222;2022-09-09T11:40:40;21.02;;;12.45;;
12412;SDS011;13877;18.896;-99.222;2022-09-09T11:43:12;25.50;;;13.15;;
12412;SDS011;13877;18.896;-99.222;2022-09-09T11:46:08;18.30;;;10.82;;
12412;SDS011;13877;18.896;-99.222;2022-09-09T11:48:40;21.00;;;9.90;;
12412;SDS011;13877;18.896;-99.222;2022-09-09T11:51:13;18.00;;;8.77;;
12412;SDS011;13877;18.896;-99.222;2022-09-09T11:53:47;13.02;;;8.15;;
12412;SDS011;13877;18.896;-99.222;2022-09-09T11:56:32;11.30;;;7.30;;
12412;SDS011;13877;18.896;-99.222;2022-09-09T11:59:29;9.98;;;6.63;;
12412;SDS011;13877;18.896;-99.222;2022-09-09T12:02:00;13.68;;;6.40;;
12412;SDS011;13877;18.896;-99.222;2022-09-09T12:04:32;11.02;;;6.80;;
12412;SDS011;13877;18.896;-99.222;2022-09-09T12:12:45;8.32;;;4.80;;
12412;SDS011;13877;18.896;-99.222;2022-09-09T12:17:42;14.57;;;5.22;;
12412;SDS011;13877;18.896;-99.222;2022-09-09T12:20:15;7.47;;;4.63;;
12412;SDS011;13877;18.896;-99.222;2022-09-09T12:33:22;8.55;;;6.00;;
12412;SDS011;13877;18.896;-99.222;2022-09-09T12:35:54;14.77;;;6.00;;
12412;SDS011;13877;18.896;-99.222;2022-09-09T12:38:30;12.15;;;6.22;;
12412;SDS011;13877;18.896;-99.222;2022-09-09T12:41:03;14.68;;;6.15;;
12412;SDS011;13877;18.896;-99.222;2022-09-09T12:43:30;14.27;;;7.18;;
12412;SDS011;13877;18.896;-99.222;2022-09-09T12:45:59;15.23;;;7.75;;
12412;SDS011;13877;18.896;-99.222;2022-09-09T12:48:31;10.13;;;6.60;;
12412;SDS011;13877;18.896;-99.222;2022-09-09T12:54:13;19.40;;;8.65;;
12412;SDS011;13877;18.896;-99.222;2022-09-09T12:56:44;19.85;;;8.35;;
12412;SDS011;13877;18.896;-99.222;2022-09-09T12:59:23;16.13;;;8.25;;
12412;SDS011;13877;18.896;-99.222;2022-09-09T13:01:55;15.35;;;8.05;;
12412;SDS011;13877;18.896;-99.222;2022-09-09T13:04:23;17.98;;;8.30;;
12412;SDS011;13877;18.896;-99.222;2022-09-09T13:06:50;15.98;;;7.63;;
12412;SDS011;13877;18.896;-99.222;2022-09-09T13:09:21;14.30;;;7.70;;
12412;SDS011;13877;18.896;-99.222;2022-09-09T13:11:52;15.15;;;6.93;;
12412;SDS011;13877;18.896;-99.222;2022-09-09T13:14:26;12.80;;;6.53;;
12412;SDS011;13877;18.896;-99.222;2022-09-09T13:16:56;13.45;;;6.65;;
12412;SDS011;13877;18.896;-99.222;2022-09-09T13:19:25;10.40;;;6.50;;
12412;SDS011;13877;18.896;-99.222;2022-09-09T13:21:55;7.85;;;6.03;;
12412;SDS011;13877;18.896;-99.222;2022-09-09T13:27:04;11.90;;;6.25;;
12412;SDS011;13877;18.896;-99.222;2022-09-09T13:29:53;9.38;;;6.20;;
12412;SDS011;13877;18.896;-99.222;2022-09-09T13:32:23;7.82;;;5.85;;
12412;SDS011;13877;18.896;-99.222;2022-09-09T13:37:35;6.88;;;5.20;;
12412;SDS011;13877;18.896;-99.222;2022-09-09T13:40:06;12.00;;;6.00;;
12412;SDS011;13877;18.896;-99.222;2022-09-09T13:42:44;7.10;;;5.10;;
12412;SDS011;13877;18.896;-99.222;2022-09-09T13:45:16;11.88;;;5.72;;
12412;SDS011;13877;18.896;-99.222;2022-09-09T13:47:49;8.82;;;5.65;;
12412;SDS011;13877;18.896;-99.222;2022-09-09T13:52:47;8.05;;;6.20;;
12412;SDS011;13877;18.896;-99.222;2022-09-09T13:55:19;13.25;;;6.20;;
12412;SDS011;13877;18.896;-99.222;2022-09-09T13:57:55;10.70;;;7.22;;
12412;SDS011;13877;18.896;-99.222;2022-09-09T14:00:23;10.95;;;7.00;;
12412;SDS011;13877;18.896;-99.222;2022-09-09T14:02:51;14.07;;;8.27;;
12412;SDS011;13877;18.896;-99.222;2022-09-09T14:05:21;12.25;;;8.05;;
12412;SDS011;13877;18.896;-99.222;2022-09-09T14:07:48;11.52;;;8.75;;
12412;SDS011;13877;18.896;-99.222;2022-09-09T14:10:16;16.27;;;9.40;;
12412;SDS011;13877;18.896;-99.222;2022-09-09T14:12:43;13.32;;;8.30;;
12412;SDS011;13877;18.896;-99.222;2022-09-09T14:15:11;10.90;;;7.75;;
12412;SDS011;13877;18.896;-99.222;2022-09-09T14:17:38;11.07;;;7.57;;
12412;SDS011;13877;18.896;-99.222;2022-09-09T14:20:05;11.90;;;7.53;;
12412;SDS011;13877;18.896;-99.222;2022-09-09T14:22:37;9.43;;;7.30;;
12412;SDS011;13877;18.896;-99.222;2022-09-09T14:25:07;12.40;;;6.85;;
12412;SDS011;13877;18.896;-99.222;2022-09-09T14:27:35;13.68;;;7.40;;
12412;SDS011;13877;18.896;-99.222;2022-09-09T14:30:03;7.60;;;5.32;;
12412;SDS011;13877;18.896;-99.222;2022-09-09T14:32:30;13.30;;;5.38;;
12412;SDS011;13877;18.896;-99.222;2022-09-09T14:34:57;8.95;;;5.82;;
12412;SDS011;13877;18.896;-99.222;2022-09-09T14:37:24;17.00;;;6.90;;
12412;SDS011;13877;18.896;-99.222;2022-09-09T14:39:51;12.38;;;6.40;;
12412;SDS011;13877;18.896;-99.222;2022-09-09T14:42:18;8.68;;;6.10;;
12412;SDS011;13877;18.896;-99.222;2022-09-09T14:44:45;24.83;;;6.00;;
12412;SDS011;13877;18.896;-99.222;2022-09-09T14:47:13;8.55;;;5.53;;
12412;SDS011;13877;18.896;-99.222;2022-09-09T14:49:40;8.00;;;5.97;;
12412;SDS011;13877;18.896;-99.222;2022-09-09T14:52:07;10.85;;;6.05;;
12412;SDS011;13877;18.896;-99.222;2022-09-09T14:54:36;13.88;;;7.00;;
12412;SDS011;13877;18.896;-99.222;2022-09-09T14:57:03;11.13;;;6.55;;
12412;SDS011;13877;18.896;-99.222;2022-09-09T14:59:29;9.00;;;5.88;;
12412;SDS011;13877;18.896;-99.222;2022-09-09T15:01:57;10.20;;;6.05;;
12412;SDS011;13877;18.896;-99.222;2022-09-09T15:04:26;12.43;;;5.88;;
12412;SDS011;13877;18.896;-99.222;2022-09-09T15:06:53;10.73;;;6.55;;
12412;SDS011;13877;18.896;-99.222;2022-09-09T15:09:20;10.23;;;6.32;;
12412;SDS011;13877;18.896;-99.222;2022-09-09T15:11:47;13.93;;;7.47;;
12412;SDS011;13877;18.896;-99.222;2022-09-09T15:14:14;14.25;;;7.05;;
12412;SDS011;13877;18.896;-99.222;2022-09-09T15:16:42;10.45;;;6.63;;
12412;SDS011;13877;18.896;-99.222;2022-09-09T15:19:08;9.15;;;6.20;;
12412;SDS011;13877;18.896;-99.222;2022-09-09T15:21:36;14.15;;;6.65;;
12412;SDS011;13877;18.896;-99.222;2022-09-09T15:24:04;10.15;;;6.40;;
12412;SDS011;13877;18.896;-99.222;2022-09-09T15:26:32;9.55;;;5.50;;
12412;SDS011;13877;18.896;-99.222;2022-09-09T15:29:01;7.60;;;5.45;;
12412;SDS011;13877;18.896;-99.222;2022-09-09T15:31:28;12.55;;;5.40;;
12412;SDS011;13877;18.896;-99.222;2022-09-09T15:34:06;9.65;;;5.85;;
12412;SDS011;13877;18.896;-99.222;2022-09-09T15:36:34;10.60;;;5.85;;
12412;SDS011;13877;18.896;-99.222;2022-09-09T15:39:03;10.10;;;5.55;;
12412;SDS011;13877;18.896;-99.222;2022-09-09T15:41:32;12.13;;;6.63;;
12412;SDS011;13877;18.896;-99.222;2022-09-09T15:43:59;18.15;;;6.80;;
12412;SDS011;13877;18.896;-99.222;2022-09-09T15:46:31;10.35;;;7.53;;
12412;SDS011;13877;18.896;-99.222;2022-09-09T15:49:07;7.75;;;5.85;;
12412;SDS011;13877;18.896;-99.222;2022-09-09T15:51:40;11.52;;;5.25;;
12412;SDS011;13877;18.896;-99.222;2022-09-09T15:54:10;8.38;;;4.47;;
12412;SDS011;13877;18.896;-99.222;2022-09-09T15:56:40;10.48;;;4.70;;
12412;SDS011;13877;18.896;-99.222;2022-09-09T15:59:08;11.60;;;7.13;;
12412;SDS011;13877;18.896;-99.222;2022-09-09T16:01:35;11.73;;;7.45;;
12412;SDS011;13877;18.896;-99.222;2022-09-09T16:04:05;10.13;;;6.25;;
12412;SDS011;13877;18.896;-99.222;2022-09-09T16:06:32;7.03;;;4.60;;
12412;SDS011;13877;18.896;-99.222;2022-09-09T16:09:01;12.75;;;5.18;;
12412;SDS011;13877;18.896;-99.222;2022-09-09T16:11:32;8.93;;;5.85;;
12412;SDS011;13877;18.896;-99.222;2022-09-09T16:14:01;14.80;;;6.57;;
12412;SDS011;13877;18.896;-99.222;2022-09-09T16:16:32;9.52;;;6.50;;
12412;SDS011;13877;18.896;-99.222;2022-09-09T16:19:03;10.15;;;5.88;;
12412;SDS011;13877;18.896;-99.222;2022-09-09T16:21:33;14.77;;;6.47;;
12412;SDS011;13877;18.896;-99.222;2022-09-09T16:24:03;11.32;;;7.25;;
12412;SDS011;13877;18.896;-99.222;2022-09-09T16:26:32;9.85;;;6.65;;
12412;SDS011;13877;18.896;-99.222;2022-09-09T16:29:01;8.80;;;6.53;;
12412;SDS011;13877;18.896;-99.222;2022-09-09T16:31:29;9.30;;;7.20;;
12412;SDS011;13877;18.896;-99.222;2022-09-09T16:33:57;12.60;;;7.80;;
12412;SDS011;13877;18.896;-99.222;2022-09-09T16:36:25;17.23;;;8.70;;
12412;SDS011;13877;18.896;-99.222;2022-09-09T16:38:59;17.25;;;7.82;;
12412;SDS011;13877;18.896;-99.222;2022-09-09T16:41:29;11.52;;;7.38;;
12412;SDS011;13877;18.896;-99.222;2022-09-09T16:43:57;12.13;;;8.65;;
12412;SDS011;13877;18.896;-99.222;2022-09-09T16:46:26;16.80;;;9.70;;
12412;SDS011;13877;18.896;-99.222;2022-09-09T16:48:55;14.48;;;8.43;;
12412;SDS011;13877;18.896;-99.222;2022-09-09T16:51:30;14.27;;;8.32;;
12412;SDS011;13877;18.896;-99.222;2022-09-09T16:54:00;11.63;;;8.23;;
12412;SDS011;13877;18.896;-99.222;2022-09-09T16:56:29;23.13;;;8.63;;
12412;SDS011;13877;18.896;-99.222;2022-09-09T16:59:02;15.50;;;8.75;;
12412;SDS011;13877;18.896;-99.222;2022-09-09T17:01:31;11.10;;;8.20;;
12412;SDS011;13877;18.896;-99.222;2022-09-09T17:04:01;17.40;;;9.43;;
12412;SDS011;13877;18.896;-99.222;2022-09-09T17:06:29;14.20;;;9.20;;